Terminal Aerodrome Forecast
Issued by NWS Charleston, WV

Current Version | Previous Version | Graphics & Text | Print | Product List | Glossary On
Versions: 1 2 3 4 5 6 7 8 9 10 11 12 13 14 15 16 17 18 19 20 21 22 23 24 25 26
000
FTUS41 KRLX 311700
TAFPKB
TAF
KPKB 311729Z 3118/0118 21005KT 6SM -RA BR BKN011 OVC025
      TEMPO 3118/3121 3SM BR SCT006 BKN035
     FM312100 21005KT 4SM SHRA BR BKN009 OVC022
     FM010300 16004KT 4SM BR OVC015
     FM010600 24004KT 2SM BR OVC008
     FM011000 20004KT 4SM BR BKN016
     FM011300 21005KT 4SM BR BKN020=

USA.gov is the U.S. government's official web portal to all federal, state and local government web resources and services.